Twin Cities, Minnesota
Current Conditions -  °F | °C
As of 2:53 PM on Thursday 20 Nov 2014 (Local Time) from KMSP Reporting Station
Clear Clear  
Wind Chill:   Ceiling: Unl
Heat Index: 17°   Visibility: 10mi
Dew Point:   Wind: 15mph
Humidity: 50%   Direction: 310°NW
Pressure: 30.16"   Gusts: NA
Location:  44.8695°N, 93.2126°W
Report Text: KMSP 202053Z 31013KT 10SM CLR M08/M17 A3016 RMK AO2 SLP229 T10831172 53008
Loading
Personal Weather Stations






























Interactive Weather Map New forecast layout! Learn more

10-Day Weather Forecast

Advertisements
Track Severe Weather on mobile